sensor_id;sensor_type;location;lat;lon;timestamp;P1;durP1;ratioP1;P2;durP2;ratioP2
18793;SDS011;29610;49.022;12.114;2024-01-06T00:01:20;20.13;;;12.30;;
18793;SDS011;29610;49.022;12.114;2024-01-06T00:03:50;24.57;;;13.80;;
18793;SDS011;29610;49.022;12.114;2024-01-06T00:06:18;21.63;;;12.43;;
18793;SDS011;29610;49.022;12.114;2024-01-06T00:08:47;22.00;;;12.40;;
18793;SDS011;29610;49.022;12.114;2024-01-06T00:11:20;21.60;;;12.93;;
18793;SDS011;29610;49.022;12.114;2024-01-06T00:13:49;23.00;;;13.50;;
18793;SDS011;29610;49.022;12.114;2024-01-06T00:16:18;25.80;;;15.47;;
18793;SDS011;29610;49.022;12.114;2024-01-06T00:18:47;22.90;;;13.20;;
18793;SDS011;29610;49.022;12.114;2024-01-06T00:21:18;22.57;;;14.13;;
18793;SDS011;29610;49.022;12.114;2024-01-06T00:23:46;25.13;;;14.50;;
18793;SDS011;29610;49.022;12.114;2024-01-06T00:26:14;24.20;;;14.50;;
18793;SDS011;29610;49.022;12.114;2024-01-06T00:28:42;24.13;;;13.73;;
18793;SDS011;29610;49.022;12.114;2024-01-06T00:31:11;24.40;;;14.80;;
18793;SDS011;29610;49.022;12.114;2024-01-06T00:33:39;24.57;;;14.27;;
18793;SDS011;29610;49.022;12.114;2024-01-06T00:36:09;20.90;;;13.50;;
18793;SDS011;29610;49.022;12.114;2024-01-06T00:38:37;28.33;;;15.10;;
18793;SDS011;29610;49.022;12.114;2024-01-06T00:41:05;22.90;;;12.73;;
18793;SDS011;29610;49.022;12.114;2024-01-06T00:43:34;28.07;;;14.83;;
18793;SDS011;29610;49.022;12.114;2024-01-06T00:46:02;26.77;;;14.47;;
18793;SDS011;29610;49.022;12.114;2024-01-06T00:48:31;29.23;;;13.73;;
18793;SDS011;29610;49.022;12.114;2024-01-06T00:50:59;27.40;;;15.33;;
18793;SDS011;29610;49.022;12.114;2024-01-06T00:53:29;23.13;;;15.30;;
18793;SDS011;29610;49.022;12.114;2024-01-06T00:55:57;27.00;;;15.57;;
18793;SDS011;29610;49.022;12.114;2024-01-06T00:58:25;25.63;;;15.53;;
18793;SDS011;29610;49.022;12.114;2024-01-06T01:00:54;29.13;;;16.30;;
18793;SDS011;29610;49.022;12.114;2024-01-06T01:03:26;22.33;;;14.30;;
18793;SDS011;29610;49.022;12.114;2024-01-06T01:05:57;27.30;;;14.53;;
18793;SDS011;29610;49.022;12.114;2024-01-06T01:08:26;27.90;;;15.07;;
18793;SDS011;29610;49.022;12.114;2024-01-06T01:10:55;28.07;;;16.90;;
18793;SDS011;29610;49.022;12.114;2024-01-06T01:13:24;22.50;;;14.70;;
18793;SDS011;29610;49.022;12.114;2024-01-06T01:15:52;33.20;;;16.20;;
18793;SDS011;29610;49.022;12.114;2024-01-06T01:18:21;30.40;;;17.30;;
18793;SDS011;29610;49.022;12.114;2024-01-06T01:20:49;28.03;;;15.93;;
18793;SDS011;29610;49.022;12.114;2024-01-06T01:23:17;29.43;;;16.20;;
18793;SDS011;29610;49.022;12.114;2024-01-06T01:25:45;22.30;;;15.10;;
18793;SDS011;29610;49.022;12.114;2024-01-06T01:28:15;28.07;;;15.87;;
18793;SDS011;29610;49.022;12.114;2024-01-06T01:30:43;27.83;;;14.43;;
18793;SDS011;29610;49.022;12.114;2024-01-06T01:33:11;23.77;;;14.93;;
18793;SDS011;29610;49.022;12.114;2024-01-06T01:35:40;23.70;;;15.80;;
18793;SDS011;29610;49.022;12.114;2024-01-06T01:38:08;25.00;;;14.33;;
18793;SDS011;29610;49.022;12.114;2024-01-06T01:40:36;29.20;;;15.33;;
18793;SDS011;29610;49.022;12.114;2024-01-06T01:43:05;25.17;;;15.33;;
18793;SDS011;29610;49.022;12.114;2024-01-06T01:45:34;26.97;;;16.00;;
18793;SDS011;29610;49.022;12.114;2024-01-06T01:48:03;28.13;;;16.40;;
18793;SDS011;29610;49.022;12.114;2024-01-06T01:50:32;28.10;;;15.50;;
18793;SDS011;29610;49.022;12.114;2024-01-06T01:53:01;29.27;;;15.80;;
18793;SDS011;29610;49.022;12.114;2024-01-06T01:55:29;26.73;;;16.07;;
18793;SDS011;29610;49.022;12.114;2024-01-06T01:57:58;24.17;;;15.77;;
18793;SDS011;29610;49.022;12.114;2024-01-06T02:00:27;35.20;;;15.60;;
18793;SDS011;29610;49.022;12.114;2024-01-06T02:02:57;32.33;;;16.60;;
18793;SDS011;29610;49.022;12.114;2024-01-06T02:05:29;37.17;;;17.87;;
18793;SDS011;29610;49.022;12.114;2024-01-06T02:07:58;31.57;;;17.87;;
18793;SDS011;29610;49.022;12.114;2024-01-06T02:10:26;35.47;;;17.20;;
18793;SDS011;29610;49.022;12.114;2024-01-06T02:12:55;29.93;;;15.60;;
18793;SDS011;29610;49.022;12.114;2024-01-06T02:15:23;32.40;;;16.53;;
18793;SDS011;29610;49.022;12.114;2024-01-06T02:17:52;32.10;;;18.13;;
18793;SDS011;29610;49.022;12.114;2024-01-06T02:20:21;40.40;;;17.33;;
18793;SDS011;29610;49.022;12.114;2024-01-06T02:22:54;30.07;;;17.20;;
18793;SDS011;29610;49.022;12.114;2024-01-06T02:25:23;36.60;;;17.80;;
18793;SDS011;29610;49.022;12.114;2024-01-06T02:27:51;28.43;;;16.00;;
18793;SDS011;29610;49.022;12.114;2024-01-06T02:30:20;35.50;;;16.80;;
18793;SDS011;29610;49.022;12.114;2024-01-06T02:32:48;33.10;;;17.93;;
18793;SDS011;29610;49.022;12.114;2024-01-06T02:35:16;33.30;;;18.30;;
18793;SDS011;29610;49.022;12.114;2024-01-06T02:37:45;37.00;;;18.30;;
18793;SDS011;29610;49.022;12.114;2024-01-06T02:40:14;36.50;;;19.03;;
18793;SDS011;29610;49.022;12.114;2024-01-06T02:42:43;39.47;;;19.57;;
18793;SDS011;29610;49.022;12.114;2024-01-06T02:45:11;32.57;;;16.97;;
18793;SDS011;29610;49.022;12.114;2024-01-06T02:47:39;31.77;;;17.73;;
18793;SDS011;29610;49.022;12.114;2024-01-06T02:50:07;31.63;;;16.63;;
18793;SDS011;29610;49.022;12.114;2024-01-06T02:52:36;33.10;;;18.17;;
18793;SDS011;29610;49.022;12.114;2024-01-06T02:55:05;31.53;;;17.50;;
18793;SDS011;29610;49.022;12.114;2024-01-06T02:57:35;30.20;;;16.70;;
18793;SDS011;29610;49.022;12.114;2024-01-06T03:00:05;26.73;;;16.20;;
18793;SDS011;29610;49.022;12.114;2024-01-06T03:02:35;28.67;;;16.30;;
18793;SDS011;29610;49.022;12.114;2024-01-06T03:05:04;28.13;;;17.07;;
18793;SDS011;29610;49.022;12.114;2024-01-06T03:07:33;29.73;;;16.90;;
18793;SDS011;29610;49.022;12.114;2024-01-06T03:10:01;25.97;;;17.10;;
18793;SDS011;29610;49.022;12.114;2024-01-06T03:12:30;35.03;;;17.63;;
18793;SDS011;29610;49.022;12.114;2024-01-06T03:15:00;28.77;;;16.43;;
18793;SDS011;29610;49.022;12.114;2024-01-06T03:17:28;33.70;;;15.87;;
18793;SDS011;29610;49.022;12.114;2024-01-06T03:19:56;31.37;;;16.30;;
18793;SDS011;29610;49.022;12.114;2024-01-06T03:22:25;32.10;;;16.07;;
18793;SDS011;29610;49.022;12.114;2024-01-06T03:24:53;33.87;;;18.03;;
18793;SDS011;29610;49.022;12.114;2024-01-06T03:27:21;33.70;;;17.20;;
18793;SDS011;29610;49.022;12.114;2024-01-06T03:29:50;31.27;;;16.83;;
18793;SDS011;29610;49.022;12.114;2024-01-06T03:32:20;35.63;;;17.37;;
18793;SDS011;29610;49.022;12.114;2024-01-06T03:34:49;30.57;;;16.80;;
18793;SDS011;29610;49.022;12.114;2024-01-06T03:37:17;37.87;;;18.30;;
18793;SDS011;29610;49.022;12.114;2024-01-06T03:39:45;34.77;;;17.67;;
18793;SDS011;29610;49.022;12.114;2024-01-06T03:42:14;33.10;;;18.20;;
18793;SDS011;29610;49.022;12.114;2024-01-06T03:44:42;33.40;;;19.70;;
18793;SDS011;29610;49.022;12.114;2024-01-06T03:47:10;40.10;;;20.07;;
18793;SDS011;29610;49.022;12.114;2024-01-06T03:49:40;40.47;;;19.80;;
18793;SDS011;29610;49.022;12.114;2024-01-06T03:52:08;39.20;;;19.80;;
18793;SDS011;29610;49.022;12.114;2024-01-06T03:54:37;30.90;;;16.97;;
18793;SDS011;29610;49.022;12.114;2024-01-06T03:57:05;41.67;;;18.80;;
18793;SDS011;29610;49.022;12.114;2024-01-06T03:59:33;38.63;;;18.80;;
18793;SDS011;29610;49.022;12.114;2024-01-06T04:02:01;32.77;;;19.10;;
18793;SDS011;29610;49.022;12.114;2024-01-06T04:04:30;37.27;;;19.13;;
18793;SDS011;29610;49.022;12.114;2024-01-06T04:07:00;39.13;;;20.53;;
18793;SDS011;29610;49.022;12.114;2024-01-06T04:09:28;42.33;;;19.17;;
18793;SDS011;29610;49.022;12.114;2024-01-06T04:11:57;34.73;;;17.87;;
18793;SDS011;29610;49.022;12.114;2024-01-06T04:14:27;38.53;;;19.20;;
18793;SDS011;29610;49.022;12.114;2024-01-06T04:16:55;42.17;;;21.07;;
18793;SDS011;29610;49.022;12.114;2024-01-06T04:19:23;41.40;;;19.23;;
18793;SDS011;29610;49.022;12.114;2024-01-06T04:21:52;42.17;;;19.73;;
18793;SDS011;29610;49.022;12.114;2024-01-06T04:24:22;37.70;;;18.80;;
18793;SDS011;29610;49.022;12.114;2024-01-06T04:26:50;39.60;;;18.80;;
18793;SDS011;29610;49.022;12.114;2024-01-06T04:29:18;37.80;;;17.13;;
18793;SDS011;29610;49.022;12.114;2024-01-06T04:31:46;41.83;;;17.50;;
18793;SDS011;29610;49.022;12.114;2024-01-06T04:34:15;35.10;;;19.47;;
18793;SDS011;29610;49.022;12.114;2024-01-06T04:36:43;41.83;;;18.03;;
18793;SDS011;29610;49.022;12.114;2024-01-06T04:39:11;42.43;;;20.80;;
18793;SDS011;29610;49.022;12.114;2024-01-06T04:41:41;36.97;;;19.27;;
18793;SDS011;29610;49.022;12.114;2024-01-06T04:44:09;46.90;;;20.00;;
18793;SDS011;29610;49.022;12.114;2024-01-06T04:46:38;41.60;;;19.90;;
18793;SDS011;29610;49.022;12.114;2024-01-06T04:49:06;37.83;;;18.40;;
18793;SDS011;29610;49.022;12.114;2024-01-06T04:51:34;47.30;;;22.77;;
18793;SDS011;29610;49.022;12.114;2024-01-06T04:54:03;45.40;;;21.03;;
18793;SDS011;29610;49.022;12.114;2024-01-06T04:56:32;38.10;;;20.23;;
18793;SDS011;29610;49.022;12.114;2024-01-06T04:59:03;42.50;;;18.97;;
18793;SDS011;29610;49.022;12.114;2024-01-06T05:01:33;41.57;;;20.50;;
18793;SDS011;29610;49.022;12.114;2024-01-06T05:04:01;42.10;;;19.50;;
18793;SDS011;29610;49.022;12.114;2024-01-06T05:06:29;37.37;;;20.10;;
18793;SDS011;29610;49.022;12.114;2024-01-06T05:08:58;39.57;;;21.30;;
18793;SDS011;29610;49.022;12.114;2024-01-06T05:11:26;46.57;;;21.30;;
18793;SDS011;29610;49.022;12.114;2024-01-06T05:13:54;45.27;;;20.33;;
18793;SDS011;29610;49.022;12.114;2024-01-06T05:16:24;43.83;;;20.70;;
18793;SDS011;29610;49.022;12.114;2024-01-06T05:18:52;50.60;;;23.13;;
18793;SDS011;29610;49.022;12.114;2024-01-06T05:21:20;45.37;;;23.07;;
18793;SDS011;29610;49.022;12.114;2024-01-06T05:23:49;47.07;;;23.77;;
18793;SDS011;29610;49.022;12.114;2024-01-06T05:26:17;52.37;;;22.87;;
18793;SDS011;29610;49.022;12.114;2024-01-06T05:28:45;47.13;;;23.10;;
18793;SDS011;29610;49.022;12.114;2024-01-06T05:31:14;41.63;;;19.10;;
18793;SDS011;29610;49.022;12.114;2024-01-06T05:33:43;44.43;;;22.20;;
18793;SDS011;29610;49.022;12.114;2024-01-06T05:36:12;43.63;;;23.40;;
18793;SDS011;29610;49.022;12.114;2024-01-06T05:38:40;36.60;;;21.20;;
18793;SDS011;29610;49.022;12.114;2024-01-06T05:41:07;44.30;;;22.80;;
18793;SDS011;29610;49.022;12.114;2024-01-06T05:43:36;41.33;;;21.23;;
18793;SDS011;29610;49.022;12.114;2024-01-06T05:46:04;39.00;;;20.80;;
18793;SDS011;29610;49.022;12.114;2024-01-06T05:48:33;38.57;;;22.03;;
18793;SDS011;29610;49.022;12.114;2024-01-06T05:51:03;39.77;;;21.93;;
18793;SDS011;29610;49.022;12.114;2024-01-06T05:53:32;38.43;;;20.83;;
18793;SDS011;29610;49.022;12.114;2024-01-06T05:56:00;42.73;;;21.57;;
18793;SDS011;29610;49.022;12.114;2024-01-06T05:58:28;32.13;;;17.70;;
18793;SDS011;29610;49.022;12.114;2024-01-06T06:00:57;40.47;;;21.47;;
18793;SDS011;29610;49.022;12.114;2024-01-06T06:03:25;41.30;;;22.13;;
18793;SDS011;29610;49.022;12.114;2024-01-06T06:05:53;40.73;;;23.00;;
18793;SDS011;29610;49.022;12.114;2024-01-06T06:08:23;46.60;;;24.13;;
18793;SDS011;29610;49.022;12.114;2024-01-06T06:10:51;52.83;;;24.10;;
18793;SDS011;29610;49.022;12.114;2024-01-06T06:13:28;42.80;;;21.63;;
18793;SDS011;29610;49.022;12.114;2024-01-06T06:15:56;46.43;;;23.70;;
18793;SDS011;29610;49.022;12.114;2024-01-06T06:18:24;45.20;;;23.23;;
18793;SDS011;29610;49.022;12.114;2024-01-06T06:20:53;41.40;;;23.07;;
18793;SDS011;29610;49.022;12.114;2024-01-06T06:23:21;45.53;;;22.00;;
18793;SDS011;29610;49.022;12.114;2024-01-06T06:25:51;43.23;;;24.07;;
18793;SDS011;29610;49.022;12.114;2024-01-06T06:28:19;46.70;;;24.17;;
18793;SDS011;29610;49.022;12.114;2024-01-06T06:30:47;48.30;;;22.83;;
18793;SDS011;29610;49.022;12.114;2024-01-06T06:33:16;50.93;;;25.17;;
18793;SDS011;29610;49.022;12.114;2024-01-06T06:35:44;44.70;;;22.27;;
18793;SDS011;29610;49.022;12.114;2024-01-06T06:38:13;47.67;;;24.10;;
18793;SDS011;29610;49.022;12.114;2024-01-06T06:40:42;44.47;;;23.80;;
18793;SDS011;29610;49.022;12.114;2024-01-06T06:43:10;48.70;;;24.17;;
18793;SDS011;29610;49.022;12.114;2024-01-06T06:45:41;42.70;;;22.63;;
18793;SDS011;29610;49.022;12.114;2024-01-06T06:48:09;41.30;;;21.77;;
18793;SDS011;29610;49.022;12.114;2024-01-06T06:50:37;40.70;;;21.70;;
18793;SDS011;29610;49.022;12.114;2024-01-06T06:53:07;50.37;;;24.70;;
18793;SDS011;29610;49.022;12.114;2024-01-06T06:55:35;43.27;;;24.33;;
18793;SDS011;29610;49.022;12.114;2024-01-06T06:58:06;40.60;;;22.73;;
18793;SDS011;29610;49.022;12.114;2024-01-06T07:00:34;47.67;;;24.20;;
18793;SDS011;29610;49.022;12.114;2024-01-06T07:03:03;40.50;;;21.30;;
18793;SDS011;29610;49.022;12.114;2024-01-06T07:05:32;47.57;;;23.70;;
18793;SDS011;29610;49.022;12.114;2024-01-06T07:08:00;47.00;;;24.50;;
18793;SDS011;29610;49.022;12.114;2024-01-06T07:10:29;43.20;;;22.83;;
18793;SDS011;29610;49.022;12.114;2024-01-06T07:12:57;45.87;;;23.50;;
18793;SDS011;29610;49.022;12.114;2024-01-06T07:15:27;41.57;;;21.63;;
18793;SDS011;29610;49.022;12.114;2024-01-06T07:17:55;39.30;;;22.43;;
18793;SDS011;29610;49.022;12.114;2024-01-06T07:20:23;44.60;;;23.80;;
18793;SDS011;29610;49.022;12.114;2024-01-06T07:22:51;44.33;;;23.80;;
18793;SDS011;29610;49.022;12.114;2024-01-06T07:25:20;42.70;;;22.77;;
18793;SDS011;29610;49.022;12.114;2024-01-06T07:27:48;42.80;;;22.50;;
18793;SDS011;29610;49.022;12.114;2024-01-06T07:30:20;41.90;;;22.80;;
18793;SDS011;29610;49.022;12.114;2024-01-06T07:32:50;50.00;;;25.10;;
18793;SDS011;29610;49.022;12.114;2024-01-06T07:35:19;41.77;;;21.70;;
18793;SDS011;29610;49.022;12.114;2024-01-06T07:37:47;38.00;;;22.00;;
18793;SDS011;29610;49.022;12.114;2024-01-06T07:40:15;39.63;;;22.60;;
18793;SDS011;29610;49.022;12.114;2024-01-06T07:42:45;42.20;;;23.60;;
18793;SDS011;29610;49.022;12.114;2024-01-06T07:45:14;40.03;;;22.13;;
18793;SDS011;29610;49.022;12.114;2024-01-06T07:47:43;43.23;;;23.50;;
18793;SDS011;29610;49.022;12.114;2024-01-06T07:50:12;44.73;;;23.70;;
18793;SDS011;29610;49.022;12.114;2024-01-06T07:52:41;54.20;;;22.53;;
18793;SDS011;29610;49.022;12.114;2024-01-06T07:55:09;41.13;;;22.03;;
18793;SDS011;29610;49.022;12.114;2024-01-06T07:57:37;49.23;;;23.80;;
18793;SDS011;29610;49.022;12.114;2024-01-06T08:00:06;43.03;;;22.63;;
18793;SDS011;29610;49.022;12.114;2024-01-06T08:02:38;52.30;;;24.73;;
18793;SDS011;29610;49.022;12.114;2024-01-06T08:05:07;47.27;;;25.70;;
18793;SDS011;29610;49.022;12.114;2024-01-06T08:07:37;39.80;;;23.00;;
18793;SDS011;29610;49.022;12.114;2024-01-06T08:10:06;47.70;;;25.77;;
18793;SDS011;29610;49.022;12.114;2024-01-06T08:12:36;46.30;;;26.27;;
18793;SDS011;29610;49.022;12.114;2024-01-06T08:15:05;50.30;;;24.60;;
18793;SDS011;29610;49.022;12.114;2024-01-06T08:17:34;50.37;;;27.57;;
18793;SDS011;29610;49.022;12.114;2024-01-06T08:20:04;47.23;;;25.67;;
18793;SDS011;29610;49.022;12.114;2024-01-06T08:22:33;44.77;;;24.20;;
18793;SDS011;29610;49.022;12.114;2024-01-06T08:25:03;47.97;;;26.17;;
18793;SDS011;29610;49.022;12.114;2024-01-06T08:27:33;43.23;;;24.03;;
18793;SDS011;29610;49.022;12.114;2024-01-06T08:30:02;37.87;;;22.10;;
18793;SDS011;29610;49.022;12.114;2024-01-06T08:32:31;37.13;;;20.37;;
18793;SDS011;29610;49.022;12.114;2024-01-06T08:35:00;38.10;;;22.23;;
18793;SDS011;29610;49.022;12.114;2024-01-06T08:37:28;39.07;;;21.90;;
18793;SDS011;29610;49.022;12.114;2024-01-06T08:39:57;40.70;;;20.73;;
18793;SDS011;29610;49.022;12.114;2024-01-06T08:42:26;43.33;;;23.10;;
18793;SDS011;29610;49.022;12.114;2024-01-06T08:44:55;38.80;;;21.37;;
18793;SDS011;29610;49.022;12.114;2024-01-06T08:47:23;38.97;;;22.63;;
18793;SDS011;29610;49.022;12.114;2024-01-06T08:49:51;40.13;;;21.97;;
18793;SDS011;29610;49.022;12.114;2024-01-06T08:52:19;40.87;;;22.10;;
18793;SDS011;29610;49.022;12.114;2024-01-06T08:54:48;39.20;;;22.97;;
18793;SDS011;29610;49.022;12.114;2024-01-06T08:57:17;40.80;;;22.30;;
18793;SDS011;29610;49.022;12.114;2024-01-06T08:59:46;38.13;;;21.80;;
18793;SDS011;29610;49.022;12.114;2024-01-06T09:02:14;40.50;;;22.83;;
18793;SDS011;29610;49.022;12.114;2024-01-06T09:04:44;40.07;;;21.40;;
18793;SDS011;29610;49.022;12.114;2024-01-06T09:07:12;35.80;;;19.33;;
18793;SDS011;29610;49.022;12.114;2024-01-06T09:09:40;35.33;;;19.20;;
18793;SDS011;29610;49.022;12.114;2024-01-06T09:12:09;38.53;;;20.77;;
18793;SDS011;29610;49.022;12.114;2024-01-06T09:14:37;44.17;;;21.93;;
18793;SDS011;29610;49.022;12.114;2024-01-06T09:17:08;36.10;;;19.27;;
18793;SDS011;29610;49.022;12.114;2024-01-06T09:19:36;37.90;;;19.80;;
18793;SDS011;29610;49.022;12.114;2024-01-06T09:22:04;37.53;;;19.67;;
18793;SDS011;29610;49.022;12.114;2024-01-06T09:24:33;36.00;;;19.43;;
18793;SDS011;29610;49.022;12.114;2024-01-06T09:27:01;30.50;;;18.73;;
18793;SDS011;29610;49.022;12.114;2024-01-06T09:29:31;32.87;;;18.23;;
18793;SDS011;29610;49.022;12.114;2024-01-06T09:31:59;34.57;;;18.10;;
18793;SDS011;29610;49.022;12.114;2024-01-06T09:34:28;29.47;;;16.87;;
18793;SDS011;29610;49.022;12.114;2024-01-06T09:36:57;33.80;;;17.60;;
18793;SDS011;29610;49.022;12.114;2024-01-06T09:39:25;30.23;;;16.33;;
18793;SDS011;29610;49.022;12.114;2024-01-06T09:41:53;26.67;;;15.70;;
18793;SDS011;29610;49.022;12.114;2024-01-06T09:44:22;34.63;;;14.80;;
18793;SDS011;29610;49.022;12.114;2024-01-06T09:46:50;27.57;;;15.17;;
18793;SDS011;29610;49.022;12.114;2024-01-06T09:49:20;22.73;;;14.20;;
18793;SDS011;29610;49.022;12.114;2024-01-06T09:51:53;26.77;;;14.40;;
18793;SDS011;29610;49.022;12.114;2024-01-06T09:54:28;28.90;;;14.00;;
18793;SDS011;29610;49.022;12.114;2024-01-06T09:57:01;25.67;;;15.40;;
18793;SDS011;29610;49.022;12.114;2024-01-06T09:59:33;24.00;;;15.23;;
18793;SDS011;29610;49.022;12.114;2024-01-06T10:02:03;23.07;;;15.73;;
18793;SDS011;29610;49.022;12.114;2024-01-06T10:04:32;18.83;;;12.70;;
18793;SDS011;29610;49.022;12.114;2024-01-06T10:07:01;20.13;;;12.67;;
18793;SDS011;29610;49.022;12.114;2024-01-06T10:09:30;22.13;;;12.60;;
18793;SDS011;29610;49.022;12.114;2024-01-06T10:11:58;20.23;;;11.43;;
18793;SDS011;29610;49.022;12.114;2024-01-06T10:14:27;22.87;;;12.30;;
18793;SDS011;29610;49.022;12.114;2024-01-06T10:16:55;20.43;;;10.17;;
18793;SDS011;29610;49.022;12.114;2024-01-06T10:19:23;18.27;;;10.80;;
18793;SDS011;29610;49.022;12.114;2024-01-06T10:21:52;20.80;;;10.37;;
18793;SDS011;29610;49.022;12.114;2024-01-06T10:24:22;23.70;;;10.33;;
18793;SDS011;29610;49.022;12.114;2024-01-06T10:26:50;19.23;;;9.87;;
18793;SDS011;29610;49.022;12.114;2024-01-06T10:29:18;17.40;;;10.70;;
18793;SDS011;29610;49.022;12.114;2024-01-06T10:31:46;15.03;;;8.90;;
18793;SDS011;29610;49.022;12.114;2024-01-06T10:34:20;13.50;;;8.10;;
18793;SDS011;29610;49.022;12.114;2024-01-06T10:36:49;14.50;;;8.37;;
18793;SDS011;29610;49.022;12.114;2024-01-06T10:39:19;12.53;;;8.17;;
18793;SDS011;29610;49.022;12.114;2024-01-06T10:41:49;14.50;;;8.63;;
18793;SDS011;29610;49.022;12.114;2024-01-06T10:44:19;16.90;;;8.27;;
18793;SDS011;29610;49.022;12.114;2024-01-06T10:46:49;18.33;;;8.90;;
18793;SDS011;29610;49.022;12.114;2024-01-06T10:49:19;15.90;;;9.07;;
18793;SDS011;29610;49.022;12.114;2024-01-06T10:51:50;20.03;;;9.17;;
18793;SDS011;29610;49.022;12.114;2024-01-06T10:54:22;18.30;;;8.43;;
18793;SDS011;29610;49.022;12.114;2024-01-06T10:56:54;16.70;;;8.33;;
18793;SDS011;29610;49.022;12.114;2024-01-06T10:59:26;14.23;;;8.23;;
18793;SDS011;29610;49.022;12.114;2024-01-06T11:02:00;17.20;;;9.80;;
18793;SDS011;29610;49.022;12.114;2024-01-06T11:04:29;13.37;;;7.40;;
18793;SDS011;29610;49.022;12.114;2024-01-06T11:06:58;12.23;;;7.33;;
18793;SDS011;29610;49.022;12.114;2024-01-06T11:09:29;18.73;;;6.70;;
18793;SDS011;29610;49.022;12.114;2024-01-06T11:12:05;16.43;;;7.90;;
18793;SDS011;29610;49.022;12.114;2024-01-06T11:14:36;11.43;;;6.20;;
18793;SDS011;29610;49.022;12.114;2024-01-06T11:17:05;15.03;;;7.63;;
18793;SDS011;29610;49.022;12.114;2024-01-06T11:19:43;12.33;;;6.50;;
18793;SDS011;29610;49.022;12.114;2024-01-06T11:22:21;12.90;;;5.83;;
18793;SDS011;29610;49.022;12.114;2024-01-06T11:25:03;15.43;;;7.17;;
18793;SDS011;29610;49.022;12.114;2024-01-06T11:27:34;15.80;;;6.30;;
18793;SDS011;29610;49.022;12.114;2024-01-06T11:30:04;12.53;;;7.17;;
18793;SDS011;29610;49.022;12.114;2024-01-06T11:32:34;16.20;;;7.17;;
18793;SDS011;29610;49.022;12.114;2024-01-06T11:35:06;15.70;;;6.37;;
18793;SDS011;29610;49.022;12.114;2024-01-06T11:37:41;11.60;;;6.10;;
18793;SDS011;29610;49.022;12.114;2024-01-06T11:40:30;14.93;;;6.37;;
18793;SDS011;29610;49.022;12.114;2024-01-06T11:43:01;12.83;;;5.40;;
18793;SDS011;29610;49.022;12.114;2024-01-06T11:45:33;13.27;;;5.60;;
18793;SDS011;29610;49.022;12.114;2024-01-06T11:48:03;18.43;;;5.73;;
18793;SDS011;29610;49.022;12.114;2024-01-06T11:50:34;13.87;;;5.83;;
18793;SDS011;29610;49.022;12.114;2024-01-06T11:53:04;12.60;;;5.83;;
18793;SDS011;29610;49.022;12.114;2024-01-06T11:55:39;16.73;;;5.10;;
18793;SDS011;29610;49.022;12.114;2024-01-06T11:58:09;19.53;;;5.40;;
18793;SDS011;29610;49.022;12.114;2024-01-06T12:00:37;13.77;;;4.33;;
18793;SDS011;29610;49.022;12.114;2024-01-06T12:03:07;11.03;;;5.20;;
18793;SDS011;29610;49.022;12.114;2024-01-06T12:05:36;14.30;;;5.30;;
18793;SDS011;29610;49.022;12.114;2024-01-06T12:08:05;12.83;;;4.93;;
18793;SDS011;29610;49.022;12.114;2024-01-06T12:10:35;13.03;;;4.27;;
18793;SDS011;29610;49.022;12.114;2024-01-06T12:13:06;13.70;;;5.30;;
18793;SDS011;29610;49.022;12.114;2024-01-06T12:15:36;9.73;;;4.27;;
18793;SDS011;29610;49.022;12.114;2024-01-06T12:18:06;9.40;;;4.83;;
18793;SDS011;29610;49.022;12.114;2024-01-06T12:20:35;12.60;;;5.67;;
18793;SDS011;29610;49.022;12.114;2024-01-06T12:23:03;12.30;;;6.17;;
18793;SDS011;29610;49.022;12.114;2024-01-06T12:25:32;10.20;;;5.50;;
18793;SDS011;29610;49.022;12.114;2024-01-06T12:28:07;9.70;;;5.20;;
18793;SDS011;29610;49.022;12.114;2024-01-06T12:30:37;14.80;;;6.27;;
18793;SDS011;29610;49.022;12.114;2024-01-06T12:33:06;9.67;;;4.80;;
18793;SDS011;29610;49.022;12.114;2024-01-06T12:35:35;8.97;;;4.03;;
18793;SDS011;29610;49.022;12.114;2024-01-06T12:38:04;10.40;;;5.43;;
18793;SDS011;29610;49.022;12.114;2024-01-06T12:40:34;11.20;;;4.77;;
18793;SDS011;29610;49.022;12.114;2024-01-06T12:43:04;8.60;;;4.83;;
18793;SDS011;29610;49.022;12.114;2024-01-06T12:45:34;15.10;;;5.57;;
18793;SDS011;29610;49.022;12.114;2024-01-06T12:48:03;10.70;;;5.33;;
18793;SDS011;29610;49.022;12.114;2024-01-06T12:50:32;14.50;;;5.83;;
18793;SDS011;29610;49.022;12.114;2024-01-06T12:53:00;9.30;;;4.70;;
18793;SDS011;29610;49.022;12.114;2024-01-06T12:55:29;11.63;;;4.67;;
18793;SDS011;29610;49.022;12.114;2024-01-06T12:57:57;8.90;;;4.60;;
18793;SDS011;29610;49.022;12.114;2024-01-06T13:00:28;11.90;;;4.43;;
18793;SDS011;29610;49.022;12.114;2024-01-06T13:03:03;11.17;;;5.37;;
18793;SDS011;29610;49.022;12.114;2024-01-06T13:05:32;12.83;;;4.80;;
18793;SDS011;29610;49.022;12.114;2024-01-06T13:08:00;13.90;;;4.60;;
18793;SDS011;29610;49.022;12.114;2024-01-06T13:10:29;10.30;;;4.30;;
18793;SDS011;29610;49.022;12.114;2024-01-06T13:12:58;17.17;;;5.17;;
18793;SDS011;29610;49.022;12.114;2024-01-06T13:15:26;10.90;;;4.70;;
18793;SDS011;29610;49.022;12.114;2024-01-06T13:17:55;21.93;;;5.30;;
18793;SDS011;29610;49.022;12.114;2024-01-06T13:20:25;12.23;;;5.13;;
18793;SDS011;29610;49.022;12.114;2024-01-06T13:22:53;9.07;;;4.87;;
18793;SDS011;29610;49.022;12.114;2024-01-06T13:25:21;14.47;;;6.70;;
18793;SDS011;29610;49.022;12.114;2024-01-06T13:27:50;8.27;;;4.53;;
18793;SDS011;29610;49.022;12.114;2024-01-06T13:30:18;10.30;;;4.93;;
18793;SDS011;29610;49.022;12.114;2024-01-06T13:32:47;12.07;;;5.17;;
18793;SDS011;29610;49.022;12.114;2024-01-06T13:35:17;10.30;;;5.53;;
18793;SDS011;29610;49.022;12.114;2024-01-06T13:37:46;11.33;;;4.77;;
18793;SDS011;29610;49.022;12.114;2024-01-06T13:40:17;9.60;;;4.53;;
18793;SDS011;29610;49.022;12.114;2024-01-06T13:42:46;9.93;;;3.90;;
18793;SDS011;29610;49.022;12.114;2024-01-06T13:45:15;12.60;;;5.03;;
18793;SDS011;29610;49.022;12.114;2024-01-06T13:47:43;10.83;;;5.20;;
18793;SDS011;29610;49.022;12.114;2024-01-06T13:50:12;11.43;;;6.20;;
18793;SDS011;29610;49.022;12.114;2024-01-06T13:52:43;13.47;;;5.80;;
18793;SDS011;29610;49.022;12.114;2024-01-06T13:55:14;9.60;;;5.07;;
18793;SDS011;29610;49.022;12.114;2024-01-06T13:57:42;13.50;;;6.13;;
18793;SDS011;29610;49.022;12.114;2024-01-06T14:00:11;7.90;;;4.50;;
18793;SDS011;29610;49.022;12.114;2024-01-06T14:02:46;10.83;;;5.00;;
18793;SDS011;29610;49.022;12.114;2024-01-06T14:05:15;13.23;;;6.43;;
18793;SDS011;29610;49.022;12.114;2024-01-06T14:07:45;9.37;;;4.93;;
18793;SDS011;29610;49.022;12.114;2024-01-06T14:10:17;12.77;;;5.27;;
18793;SDS011;29610;49.022;12.114;2024-01-06T14:12:46;14.40;;;6.13;;
18793;SDS011;29610;49.022;12.114;2024-01-06T14:15:14;11.13;;;5.90;;
18793;SDS011;29610;49.022;12.114;2024-01-06T14:17:43;9.70;;;5.13;;
18793;SDS011;29610;49.022;12.114;2024-01-06T14:20:16;15.80;;;6.10;;
18793;SDS011;29610;49.022;12.114;2024-01-06T14:22:45;16.70;;;6.00;;
18793;SDS011;29610;49.022;12.114;2024-01-06T14:25:14;16.03;;;7.50;;